Time;durP1;ratioP1;P1;durP2;ratioP2;P2;SDS_P1;SDS_P2;PMS_P1;PMS_P2;Temp;Humidity;BMP_temperature;BMP_pressure;BME280_temperature;BME280_humidity;BME280_pressure;Samples;Min_cycle;Max_cycle;Signal;HPM_P1;HPM_P2
2022/11/06 07:23:54;;;;;;;7.93;5.00;;;1.30;99.90;;;;;;5103803;27;20716;-80
2022/11/06 07:26:19;;;;;;;6.33;4.87;;;1.40;99.90;;;;;;5095634;28;20217;-81
2022/11/06 07:28:45;;;;;;;6.40;4.80;;;1.40;99.90;;;;;;5096686;28;20165;-79
2022/11/06 07:31:13;;;;;;;7.43;4.87;;;1.40;99.90;;;;;;5077386;28;20213;-79
2022/11/06 07:33:39;;;;;;;6.07;4.97;;;1.70;99.90;;;;;;5075667;28;20215;-79
2022/11/06 07:36:10;;;;;;;5.43;4.50;;;1.80;99.90;;;;;;5109394;28;20612;-78
2022/11/06 07:38:37;;;;;;;6.53;4.47;;;1.90;99.90;;;;;;5094606;28;20267;-80
2022/11/06 07:41:05;;;;;;;5.67;4.30;;;2.10;99.90;;;;;;5094868;28;20438;-79
2022/11/06 07:43:31;;;;;;;8.40;5.80;;;2.30;99.90;;;;;;5093952;28;20679;-81
2022/11/06 07:46:00;;;;;;;9.83;6.60;;;2.70;99.90;;;;;;5094550;28;20227;-79
2022/11/06 07:48:26;;;;;;;9.93;5.90;;;3.10;99.90;;;;;;5096082;28;20189;-81
2022/11/06 07:50:51;;;;;;;5.33;4.30;;;3.60;99.90;;;;;;5096869;28;20196;-81
2022/11/06 07:53:17;;;;;;;3.83;3.50;;;4.10;99.90;;;;;;5095488;28;20202;-80
2022/11/06 07:55:50;;;;;;;6.70;4.00;;;4.60;99.90;;;;;;5096742;28;20213;-80
2022/11/06 07:58:17;;;;;;;6.83;3.60;;;5.50;99.90;;;;;;5096156;28;20169;-81
2022/11/06 08:00:50;;;;;;;3.40;3.10;;;6.10;99.90;;;;;;5095149;28;20188;-80
2022/11/06 08:03:17;;;;;;;3.60;3.30;;;6.80;99.90;;;;;;5093049;28;20222;-78
2022/11/06 08:05:43;;;;;;;3.77;3.37;;;6.80;99.90;;;;;;5093462;28;20520;-80
2022/11/06 08:08:10;;;;;;;4.10;3.50;;;6.70;99.90;;;;;;5095078;28;20169;-81
2022/11/06 08:10:39;;;;;;;3.17;2.87;;;7.20;99.90;;;;;;5095154;28;20592;-79
2022/11/06 08:13:12;;;;;;;3.00;2.70;;;7.00;99.90;;;;;;5092860;28;20202;-79
2022/11/06 08:15:38;;;;;;;3.87;3.47;;;7.00;99.90;;;;;;5093150;28;20180;-79
2022/11/06 08:18:06;;;;;;;3.17;2.77;;;7.00;99.90;;;;;;5093373;28;20200;-78
2022/11/06 08:20:35;;;;;;;3.20;2.90;;;7.10;99.90;;;;;;5092378;28;20234;-80
2022/11/06 08:23:03;;;;;;;2.90;2.33;;;7.00;99.90;;;;;;5093816;28;20214;-81
2022/11/06 08:25:30;;;;;;;2.50;2.30;;;7.10;99.90;;;;;;5092696;28;20221;-79
2022/11/06 08:27:57;;;;;;;2.93;2.67;;;7.10;99.90;;;;;;5092717;28;20546;-81
2022/11/06 08:30:23;;;;;;;3.17;2.40;;;7.30;99.90;;;;;;5093826;28;20172;-79
2022/11/06 08:32:49;;;;;;;2.50;2.30;;;7.50;99.90;;;;;;5094458;28;20245;-80
2022/11/06 08:35:15;;;;;;;2.23;1.90;;;7.40;99.90;;;;;;5080575;28;20226;-82
2022/11/06 08:37:41;;;;;;;1.83;1.73;;;7.30;99.90;;;;;;5070595;28;20174;-81
2022/11/06 08:40:07;;;;;;;2.10;1.90;;;7.20;99.90;;;;;;5076036;28;20173;-81
2022/11/06 08:42:33;;;;;;;1.70;1.60;;;7.50;99.90;;;;;;5080385;28;20604;-81
2022/11/06 08:44:58;;;;;;;1.80;1.60;;;7.50;99.90;;;;;;5079628;28;20165;-82
2022/11/06 08:47:24;;;;;;;4.20;2.37;;;8.00;99.90;;;;;;5078611;28;20173;-83
2022/11/06 08:49:50;;;;;;;2.20;1.97;;;8.60;99.90;;;;;;5078425;28;20184;-82
2022/11/06 08:52:15;;;;;;;2.47;1.83;;;9.70;99.90;;;;;;5077300;28;20543;-81
2022/11/06 08:54:41;;;;;;;5.20;2.70;;;9.70;99.90;;;;;;5074517;28;20673;-81
2022/11/06 08:57:07;;;;;;;3.83;2.30;;;10.10;99.90;;;;;;5078160;28;20619;-82
2022/11/06 08:59:32;;;;;;;2.90;2.33;;;10.00;99.90;;;;;;5079110;28;20183;-82
2022/11/06 09:01:59;;;;;;;1.80;1.70;;;10.20;99.90;;;;;;5078706;28;20201;-82
2022/11/06 09:04:25;;;;;;;1.70;1.60;;;10.50;99.90;;;;;;5078164;28;20269;-83
2022/11/06 09:06:50;;;;;;;1.67;1.57;;;10.70;99.90;;;;;;5079143;28;20171;-80
2022/11/06 09:09:16;;;;;;;1.70;1.60;;;10.70;99.90;;;;;;5078090;28;20172;-80
2022/11/06 09:11:42;;;;;;;2.30;2.10;;;10.60;99.90;;;;;;5076502;28;20187;-80
2022/11/06 09:14:08;;;;;;;2.43;1.97;;;10.80;99.90;;;;;;5071181;28;20308;-80
2022/11/06 09:16:33;;;;;;;1.70;1.60;;;11.10;99.90;;;;;;5080035;28;20180;-82
2022/11/06 09:18:59;;;;;;;1.80;1.60;;;11.40;99.90;;;;;;5058928;28;20177;-81
2022/11/06 09:21:25;;;;;;;2.43;1.80;;;11.60;99.90;;;;;;5058410;28;20169;-83
2022/11/06 09:23:50;;;;;;;2.07;1.77;;;11.80;99.90;;;;;;5076432;28;20221;-80
2022/11/06 09:26:16;;;;;;;2.37;1.40;;;11.90;99.90;;;;;;5076686;28;20173;-78
2022/11/06 09:28:42;;;;;;;2.77;1.80;;;12.00;99.90;;;;;;5080631;28;21097;-80
2022/11/06 09:31:08;;;;;;;1.67;1.57;;;12.20;99.90;;;;;;5085234;28;20652;-80
2022/11/06 09:33:34;;;;;;;1.67;1.40;;;12.60;99.90;;;;;;5075647;28;20224;-81
2022/11/06 09:36:06;;;;;;;1.30;1.20;;;12.50;99.90;;;;;;5065166;28;20177;-81
2022/11/06 09:38:32;;;;;;;1.20;1.10;;;12.60;99.90;;;;;;5076502;28;20189;-79
2022/11/06 09:41:02;;;;;;;1.13;1.03;;;12.40;99.90;;;;;;5067892;28;20180;-80
2022/11/06 09:43:46;;;;;;;1.30;1.20;;;12.40;99.90;;;;;;5077407;28;20204;-78
2022/11/06 09:46:23;;;;;;;1.33;1.10;;;12.40;99.90;;;;;;5076665;28;20348;-83
2022/11/06 09:48:54;;;;;;;1.30;1.20;;;12.50;99.90;;;;;;5076191;28;20194;-82
2022/11/06 09:51:40;;;;;;;1.20;1.13;;;12.90;99.90;;;;;;5076206;28;20176;-82
2022/11/06 09:54:14;;;;;;;1.60;1.30;;;13.20;99.90;;;;;;5074507;28;20599;-82
2022/11/06 09:56:40;;;;;;;1.37;1.27;;;13.20;99.90;;;;;;5077680;28;20176;-81
2022/11/06 09:59:11;;;;;;;1.20;1.10;;;13.40;99.90;;;;;;5077410;28;20169;-81
2022/11/06 10:02:00;;;;;;;1.33;1.23;;;13.60;99.90;;;;;;5077444;28;20177;-81
2022/11/06 10:04:40;;;;;;;1.27;0.90;;;13.60;99.90;;;;;;5076120;28;20287;-81
2022/11/06 10:07:32;;;;;;;0.80;0.80;;;13.70;99.90;;;;;;5075464;28;20184;-80
2022/11/06 10:09:59;;;;;;;1.00;1.00;;;13.70;99.90;;;;;;5076962;28;20169;-80
2022/11/06 10:12:47;;;;;;;1.80;1.03;;;13.80;99.90;;;;;;5076442;28;20306;-79
2022/11/06 10:15:25;;;;;;;3.00;1.00;;;13.90;99.90;;;;;;5076363;28;20634;-81
2022/11/06 10:18:03;;;;;;;1.50;1.17;;;14.00;99.90;;;;;;5076728;28;20153;-82
2022/11/06 10:20:53;;;;;;;2.00;0.90;;;14.00;99.90;;;;;;5065257;28;20204;-79
2022/11/06 10:23:19;;;;;;;1.20;1.10;;;14.20;99.90;;;;;;5070009;28;20212;-80
2022/11/06 10:26:13;;;;;;;1.07;0.90;;;14.40;99.90;;;;;;5077181;28;20180;-80
2022/11/06 10:28:41;;;;;;;1.00;1.00;;;14.20;99.90;;;;;;5051262;28;20189;-80
2022/11/06 10:31:16;;;;;;;1.20;1.10;;;14.20;99.90;;;;;;5073855;28;20656;-80
2022/11/06 10:34:20;;;;;;;0.90;0.90;;;14.20;99.90;;;;;;5076456;28;20227;-81
2022/11/06 10:36:53;;;;;;;1.67;0.90;;;14.10;99.90;;;;;;5064359;28;20197;-81
2022/11/06 10:39:31;;;;;;;0.93;0.90;;;14.00;99.90;;;;;;5081056;28;20179;-81
2022/11/06 10:42:19;;;;;;;1.27;1.00;;;13.80;99.90;;;;;;5076582;28;20180;-80
2022/11/06 10:44:48;;;;;;;1.10;0.87;;;14.00;99.90;;;;;;5058499;28;20189;-80
2022/11/06 10:47:28;;;;;;;1.10;0.90;;;14.10;99.90;;;;;;5062550;28;20192;-81
2022/11/06 10:49:58;;;;;;;0.93;0.90;;;14.10;99.90;;;;;;5077791;28;20187;-80
2022/11/06 10:52:43;;;;;;;1.20;1.10;;;14.40;99.90;;;;;;5072183;28;20193;-81
2022/11/06 10:55:12;;;;;;;1.20;1.10;;;14.60;99.90;;;;;;5076701;28;20212;-79
2022/11/06 10:57:52;;;;;;;1.20;1.10;;;14.60;99.90;;;;;;5076147;28;20267;-81
2022/11/06 11:00:18;;;;;;;1.00;1.00;;;14.70;99.90;;;;;;5076362;28;20173;-77
2022/11/06 11:03:05;;;;;;;1.07;0.97;;;14.80;99.90;;;;;;5076619;28;20604;-80
2022/11/06 11:05:42;;;;;;;1.20;1.07;;;15.00;99.90;;;;;;5096287;28;20179;-82
2022/11/06 11:08:30;;;;;;;1.20;1.00;;;15.30;99.90;;;;;;5092244;28;20176;-80
2022/11/06 11:11:04;;;;;;;1.00;0.90;;;15.40;99.90;;;;;;5075488;28;20180;-80
2022/11/06 11:13:30;;;;;;;1.40;1.30;;;15.50;99.90;;;;;;5075483;28;20238;-81
2022/11/06 11:15:56;;;;;;;1.20;1.10;;;15.70;99.90;;;;;;5077439;28;20169;-82
2022/11/06 11:18:30;;;;;;;0.97;0.97;;;15.60;99.90;;;;;;5077432;28;20540;-81
2022/11/06 11:21:16;;;;;;;1.40;1.30;;;15.70;99.90;;;;;;5063472;28;20181;-83
2022/11/06 11:23:43;;;;;;;1.33;1.23;;;15.90;99.90;;;;;;5076277;28;20227;-83
2022/11/06 11:26:26;;;;;;;1.30;1.20;;;15.80;99.90;;;;;;5077862;28;20177;-83
2022/11/06 11:29:01;;;;;;;1.50;1.40;;;15.80;99.90;;;;;;5076598;28;20180;-85
2022/11/06 11:31:30;;;;;;;1.47;1.30;;;16.10;99.90;;;;;;5075877;28;20529;-82
2022/11/06 11:33:58;;;;;;;1.30;1.20;;;16.10;99.90;;;;;;5077049;28;20213;-85
2022/11/06 11:36:24;;;;;;;6.93;5.47;;;16.00;99.90;;;;;;5075973;28;20180;-82
2022/11/06 11:38:51;;;;;;;2.17;1.97;;;16.00;99.90;;;;;;5076226;28;20642;-82
2022/11/06 11:41:19;;;;;;;1.70;1.60;;;16.10;99.90;;;;;;5075008;28;20169;-84
2022/11/06 11:44:05;;;;;;;1.13;1.03;;;16.10;99.90;;;;;;5076382;28;20196;-82
2022/11/06 11:46:32;;;;;;;2.43;1.30;;;16.40;99.90;;;;;;5075985;28;20205;-83
2022/11/06 11:48:58;;;;;;;1.50;1.40;;;16.50;99.90;;;;;;5074592;28;20184;-82
2022/11/06 11:51:46;;;;;;;1.57;1.47;;;16.20;99.90;;;;;;5075611;28;20179;-81
2022/11/06 11:54:11;;;;;;;1.40;1.30;;;15.80;99.90;;;;;;5076246;28;20237;-81
2022/11/06 11:57:03;;;;;;;1.40;1.30;;;15.20;99.90;;;;;;5076128;28;20224;-81
2022/11/06 11:59:35;;;;;;;2.10;1.90;;;15.00;99.90;;;;;;5055024;28;20182;-82
2022/11/06 12:02:19;;;;;;;2.33;1.70;;;15.40;99.90;;;;;;5070935;28;20189;-83
2022/11/06 12:04:51;;;;;;;1.67;1.50;;;15.70;99.90;;;;;;5071745;28;20263;-83
2022/11/06 12:07:27;;;;;;;1.40;1.30;;;16.10;99.90;;;;;;5077123;28;20303;-81
2022/11/06 12:09:53;;;;;;;1.53;1.43;;;16.00;99.90;;;;;;5074420;28;20265;-81
2022/11/06 12:12:22;;;;;;;1.60;1.50;;;16.10;99.90;;;;;;5078554;28;20193;-83
2022/11/06 12:15:23;;;;;;;1.60;1.50;;;15.70;99.90;;;;;;5071219;28;20773;-80
2022/11/06 12:18:00;;;;;;;2.80;1.40;;;15.60;99.90;;;;;;5077276;28;20185;-80
2022/11/06 12:20:53;;;;;;;1.80;1.50;;;15.60;99.90;;;;;;5087581;28;20266;-84
2022/11/06 12:23:48;;;;;;;1.87;1.57;;;15.60;99.90;;;;;;5057922;28;20217;-81
2022/11/06 12:26:32;;;;;;;1.77;1.67;;;15.40;99.90;;;;;;5056708;28;20189;-81
2022/11/06 12:29:21;;;;;;;2.23;1.90;;;15.50;99.90;;;;;;5064727;28;20673;-81
2022/11/06 12:32:11;;;;;;;3.27;1.50;;;15.50;99.90;;;;;;5077431;28;20363;-81
2022/11/06 12:34:53;;;;;;;1.70;1.40;;;15.40;99.90;;;;;;5077499;28;20202;-82
2022/11/06 12:37:42;;;;;;;1.60;1.50;;;15.10;99.90;;;;;;5080910;28;20318;-81
2022/11/06 12:40:27;;;;;;;8.93;1.63;;;14.40;99.90;;;;;;5027719;28;20189;-81
2022/11/06 12:43:05;;;;;;;1.47;1.37;;;14.30;99.90;;;;;;5057322;28;20663;-79
2022/11/06 12:46:10;;;;;;;1.50;1.40;;;14.40;99.90;;;;;;5058715;28;20519;-81
2022/11/06 12:49:09;;;;;;;1.50;1.40;;;14.60;99.90;;;;;;5062006;28;20277;-82
2022/11/06 12:51:53;;;;;;;1.70;1.60;;;14.70;99.90;;;;;;5079845;28;20674;-82
2022/11/06 12:54:28;;;;;;;2.90;1.50;;;14.60;99.90;;;;;;5077167;28;20198;-81
2022/11/06 12:57:12;;;;;;;1.50;1.40;;;14.40;99.90;;;;;;5087480;28;20177;-82
2022/11/06 13:00:09;;;;;;;1.70;1.60;;;14.60;99.90;;;;;;5100470;28;20526;-84
2022/11/06 13:02:48;;;;;;;2.10;1.90;;;14.60;99.90;;;;;;5100608;28;20192;-82
2022/11/06 13:05:28;;;;;;;1.50;1.40;;;14.80;99.90;;;;;;5099571;28;20174;-80
2022/11/06 13:08:12;;;;;;;1.53;1.43;;;15.00;99.90;;;;;;5097096;28;20261;-81
2022/11/06 13:11:16;;;;;;;1.50;1.40;;;15.00;99.90;;;;;;5096824;28;20166;-81
2022/11/06 13:13:52;;;;;;;1.50;1.40;;;15.30;99.90;;;;;;5075327;28;20266;-82
2022/11/06 13:17:03;;;;;;;3.17;1.67;;;15.30;99.90;;;;;;5097986;28;20164;-80
2022/11/06 13:19:35;;;;;;;1.50;1.40;;;14.80;99.90;;;;;;5034608;28;20260;-81
2022/11/06 13:22:07;;;;;;;1.60;1.50;;;13.70;99.90;;;;;;5096226;28;20265;-83
2022/11/06 13:24:58;;;;;;;1.57;1.27;;;12.70;99.90;;;;;;5097982;28;20193;-82
2022/11/06 13:27:40;;;;;;;1.63;1.20;;;12.10;99.90;;;;;;5059322;28;20182;-81
2022/11/06 13:30:23;;;;;;;1.43;1.30;;;11.80;99.90;;;;;;5097908;28;20233;-81
2022/11/06 13:33:09;;;;;;;1.60;1.33;;;11.60;99.90;;;;;;5097526;28;20207;-81
2022/11/06 13:35:38;;;;;;;1.30;1.20;;;11.40;99.90;;;;;;5083118;28;20215;-80
2022/11/06 13:38:13;;;;;;;1.47;1.30;;;11.40;99.90;;;;;;5097762;28;20622;-80
2022/11/06 13:40:43;;;;;;;3.03;1.70;;;11.40;99.90;;;;;;5097284;28;20621;-80
2022/11/06 13:43:21;;;;;;;1.33;1.23;;;11.30;99.90;;;;;;5097470;28;20529;-80
2022/11/06 13:46:18;;;;;;;2.07;1.70;;;11.30;99.90;;;;;;5096560;28;20255;-79
2022/11/06 13:48:53;;;;;;;9.80;5.10;;;11.10;99.90;;;;;;5097366;28;20202;-81
2022/11/06 13:51:50;;;;;;;2.77;1.60;;;11.00;99.90;;;;;;5097469;28;20160;-81
2022/11/06 13:54:30;;;;;;;2.60;1.70;;;10.90;99.90;;;;;;5082072;28;20625;-79
2022/11/06 13:57:28;;;;;;;1.50;1.40;;;10.70;99.90;;;;;;5075464;28;20173;-79
2022/11/06 14:00:16;;;;;;;2.10;1.90;;;10.80;99.90;;;;;;5076243;28;20623;-81
2022/11/06 14:03:08;;;;;;;2.70;1.40;;;10.70;99.90;;;;;;5074713;28;20200;-80
2022/11/06 14:05:55;;;;;;;1.70;1.60;;;10.70;99.90;;;;;;5057376;28;20552;-80
2022/11/06 14:08:44;;;;;;;1.80;1.60;;;10.70;99.90;;;;;;5056861;28;20177;-81
2022/11/06 14:11:28;;;;;;;3.67;1.53;;;10.60;99.90;;;;;;5057043;28;20587;-81
2022/11/06 14:14:13;;;;;;;3.87;1.43;;;10.70;99.90;;;;;;5057672;28;20209;-80
2022/11/06 14:16:42;;;;;;;1.60;1.30;;;10.60;99.90;;;;;;5057733;28;20616;-80
2022/11/06 14:19:23;;;;;;;1.77;1.40;;;10.50;99.90;;;;;;5056853;28;20172;-81
2022/11/06 14:21:54;;;;;;;1.50;1.30;;;10.50;99.90;;;;;;5060883;28;20191;-81
2022/11/06 14:24:28;;;;;;;1.60;1.50;;;10.40;99.90;;;;;;5077389;28;20184;-81
2022/11/06 14:26:53;;;;;;;1.70;1.60;;;10.30;99.90;;;;;;5077132;28;20165;-81
2022/11/06 14:29:25;;;;;;;2.27;1.67;;;10.20;99.90;;;;;;5078106;28;20529;-82
2022/11/06 14:32:09;;;;;;;1.50;1.40;;;10.10;99.90;;;;;;5077144;28;20177;-80
2022/11/06 14:34:36;;;;;;;1.47;1.30;;;10.20;99.90;;;;;;5078417;28;20224;-83
2022/11/06 14:37:17;;;;;;;1.60;1.50;;;10.00;99.90;;;;;;5078868;28;20195;-81
2022/11/06 14:39:55;;;;;;;1.63;1.53;;;10.00;99.90;;;;;;5078249;28;20214;-80
2022/11/06 14:42:32;;;;;;;5.60;1.60;;;10.00;99.90;;;;;;5076355;28;20186;-80
2022/11/06 14:45:07;;;;;;;1.43;1.33;;;10.10;99.90;;;;;;5078469;28;20171;-81
2022/11/06 14:47:40;;;;;;;1.90;1.77;;;10.10;99.90;;;;;;5076836;28;20572;-80
2022/11/06 14:50:17;;;;;;;2.97;2.30;;;10.10;99.90;;;;;;5075866;28;20645;-80
2022/11/06 14:52:51;;;;;;;1.83;1.60;;;10.10;99.90;;;;;;5076964;28;20235;-80
2022/11/06 14:55:27;;;;;;;1.77;1.67;;;10.10;99.90;;;;;;5077622;28;20176;-82
2022/11/06 14:57:54;;;;;;;2.57;1.53;;;10.10;99.90;;;;;;5076155;28;20172;-81
2022/11/06 15:00:51;;;;;;;1.70;1.60;;;10.10;99.90;;;;;;5076438;28;20175;-82
2022/11/06 15:03:34;;;;;;;1.80;1.70;;;10.00;99.90;;;;;;5076529;28;20203;-82
2022/11/06 15:06:20;;;;;;;4.93;1.90;;;10.00;99.90;;;;;;5077051;28;20190;-82
2022/11/06 15:08:46;;;;;;;1.90;1.73;;;9.90;99.90;;;;;;5067715;28;20188;-81
2022/11/06 15:11:30;;;;;;;3.47;2.00;;;9.90;99.90;;;;;;5078348;28;20180;-83
2022/11/06 15:13:59;;;;;;;2.00;1.80;;;9.80;99.90;;;;;;5078168;28;20693;-82
2022/11/06 15:16:39;;;;;;;3.33;3.00;;;9.70;99.90;;;;;;5079270;28;20204;-83
2022/11/06 15:19:26;;;;;;;3.33;3.00;;;9.60;99.90;;;;;;5078254;28;20641;-81
2022/11/06 15:22:04;;;;;;;4.30;3.60;;;9.50;99.90;;;;;;5078270;28;20200;-81
2022/11/06 15:24:37;;;;;;;6.07;3.10;;;9.40;99.90;;;;;;5078626;28;20263;-83
2022/11/06 15:27:10;;;;;;;5.83;4.20;;;9.30;99.90;;;;;;5078134;28;20170;-81
2022/11/06 15:29:40;;;;;;;3.70;3.30;;;9.20;99.90;;;;;;5078546;28;20253;-81
2022/11/06 15:32:11;;;;;;;11.70;3.60;;;9.10;99.90;;;;;;5076845;28;20661;-80
2022/11/06 15:35:16;;;;;;;6.10;3.23;;;9.00;99.90;;;;;;5077080;28;20219;-86
2022/11/06 15:37:49;;;;;;;5.40;4.87;;;9.00;99.90;;;;;;5039154;28;20190;-81
2022/11/06 15:40:21;;;;;;;32.63;5.90;;;8.90;99.90;;;;;;5072221;28;20671;-80
2022/11/06 15:42:47;;;;;;;11.77;7.63;;;;;;;;;;5077673;28;20197;-81
2022/11/06 15:45:15;;;;;;;18.67;10.00;;;8.70;99.90;;;;;;5080120;28;20179;-81
2022/11/06 15:47:56;;;;;;;13.80;9.77;;;8.70;99.90;;;;;;5079692;28;20190;-81
2022/11/06 15:50:23;;;;;;;9.07;7.20;;;8.60;99.90;;;;;;5081493;28;20176;-82
2022/11/06 15:52:50;;;;;;;8.83;6.50;;;8.60;99.90;;;;;;5080850;28;20306;-82
2022/11/06 15:55:25;;;;;;;18.20;7.63;;;8.40;99.90;;;;;;5080737;28;20185;-82
2022/11/06 15:57:51;;;;;;;14.53;7.13;;;8.30;99.90;;;;;;5081126;28;20276;-81
2022/11/06 16:00:17;;;;;;;8.50;6.60;;;8.30;99.90;;;;;;5081263;28;20625;-81
2022/11/06 16:02:48;;;;;;;12.47;7.80;;;8.20;99.90;;;;;;5082242;28;20216;-84
2022/11/06 16:05:15;;;;;;;15.13;10.27;;;8.00;99.90;;;;;;5080824;28;20639;-81
2022/11/06 16:07:43;;;;;;;18.30;9.40;;;7.90;99.90;;;;;;5082434;28;20179;-81
2022/11/06 16:10:17;;;;;;;17.30;10.30;;;7.90;99.90;;;;;;5080931;28;20177;-82
2022/11/06 16:12:45;;;;;;;15.87;8.37;;;7.80;99.90;;;;;;5080153;28;20212;-83
2022/11/06 16:15:45;;;;;;;16.10;10.23;;;7.80;99.90;;;;;;5083211;28;20202;-82
2022/11/06 16:18:18;;;;;;;31.80;17.30;;;7.70;99.90;;;;;;5082625;28;20596;-82
2022/11/06 16:20:48;;;;;;;21.80;15.20;;;7.70;99.90;;;;;;5081148;28;20157;-81
2022/11/06 16:23:17;;;;;;;12.63;8.30;;;7.70;99.90;;;;;;5078988;28;20215;-80
2022/11/06 16:25:44;;;;;;;6.50;5.40;;;7.70;99.90;;;;;;5080034;28;20206;-82
2022/11/06 16:28:29;;;;;;;5.43;4.83;;;7.60;99.90;;;;;;5083183;28;20316;-81
2022/11/06 16:31:04;;;;;;;39.17;31.63;;;7.70;99.90;;;;;;5080315;28;20252;-82
2022/11/06 16:33:30;;;;;;;34.13;22.80;;;7.70;99.90;;;;;;5097983;28;20249;-82
2022/11/06 16:36:05;;;;;;;18.30;13.50;;;7.70;99.90;;;;;;5080588;28;20177;-83
2022/11/06 16:38:37;;;;;;;7.53;6.60;;;7.80;99.90;;;;;;5097526;28;20165;-81
2022/11/06 16:41:04;;;;;;;9.67;8.67;;;7.70;99.90;;;;;;5080285;28;20631;-82
2022/11/06 16:43:30;;;;;;;12.57;8.80;;;7.80;99.90;;;;;;5079455;28;20664;-82
2022/11/06 16:46:04;;;;;;;12.87;8.60;;;7.80;99.90;;;;;;5078927;28;20189;-83
2022/11/06 16:48:38;;;;;;;17.27;11.37;;;7.80;99.90;;;;;;5080090;28;20642;-82
2022/11/06 16:51:27;;;;;;;14.70;9.90;;;7.80;99.90;;;;;;5084440;28;20158;-82
2022/11/06 16:54:01;;;;;;;17.40;12.93;;;7.80;99.90;;;;;;5082384;28;20292;-81
2022/11/06 16:56:32;;;;;;;17.23;11.43;;;7.80;99.90;;;;;;5085350;28;20303;-81
2022/11/06 16:59:13;;;;;;;20.47;12.47;;;7.70;99.90;;;;;;5100858;28;20180;-81
2022/11/06 17:01:44;;;;;;;16.80;11.67;;;7.70;99.90;;;;;;5100092;28;20166;-81
2022/11/06 17:04:25;;;;;;;17.23;11.20;;;7.70;99.90;;;;;;5085309;28;20642;-81
2022/11/06 17:06:52;;;;;;;35.70;18.00;;;7.60;99.90;;;;;;5085324;28;20528;-79
2022/11/06 17:09:21;;;;;;;26.20;15.97;;;7.60;99.90;;;;;;5079454;28;20183;-81
2022/11/06 17:11:50;;;;;;;40.57;26.07;;;7.50;99.90;;;;;;5079679;28;20193;-81
2022/11/06 17:14:20;;;;;;;45.90;30.57;;;7.50;99.90;;;;;;5073646;28;20233;-81
2022/11/06 17:16:52;;;;;;;19.10;13.50;;;7.40;99.90;;;;;;5066736;28;20572;-81
2022/11/06 17:19:19;;;;;;;19.90;13.33;;;7.40;99.90;;;;;;5072207;28;20166;-82
2022/11/06 17:21:45;;;;;;;86.57;34.23;;;7.30;99.90;;;;;;5067095;28;20193;-81
2022/11/06 17:24:11;;;;;;;70.97;31.13;;;7.30;99.90;;;;;;5069606;28;20226;-80
2022/11/06 17:26:43;;;;;;;70.53;34.30;;;7.30;99.90;;;;;;5061335;28;20639;-81
2022/11/06 17:29:10;;;;;;;47.70;24.80;;;7.20;99.90;;;;;;5070486;28;20256;-82
2022/11/06 17:31:36;;;;;;;66.93;34.17;;;7.20;99.90;;;;;;5059318;28;20532;-81
2022/11/06 17:34:02;;;;;;;35.23;21.80;;;7.20;99.90;;;;;;5073797;28;20277;-81
2022/11/06 17:36:29;;;;;;;27.43;18.00;;;7.20;99.90;;;;;;5085253;28;20221;-82
2022/11/06 17:38:56;;;;;;;22.20;14.63;;;7.10;99.90;;;;;;5079962;28;20224;-82
2022/11/06 17:41:29;;;;;;;34.83;24.10;;;7.10;99.90;;;;;;5080057;28;20174;-82
2022/11/06 17:44:08;;;;;;;34.30;20.83;;;7.00;99.90;;;;;;5080694;28;20309;-82
2022/11/06 17:46:40;;;;;;;23.07;16.70;;;6.90;99.90;;;;;;5084768;28;20203;-81
2022/11/06 17:49:06;;;;;;;21.70;15.27;;;6.90;99.90;;;;;;5086662;28;20186;-81
2022/11/06 17:54:27;;;;;;;18.20;12.87;;;6.80;99.90;;;;;;5080333;28;20705;-81
2022/11/06 17:56:54;;;;;;;18.30;11.70;;;6.70;99.90;;;;;;5078439;28;20240;-81
2022/11/06 17:59:20;;;;;;;16.20;11.50;;;6.70;99.90;;;;;;5079666;28;20229;-81
2022/11/06 18:01:46;;;;;;;12.43;9.53;;;6.70;99.90;;;;;;5077959;28;20182;-81
2022/11/06 18:04:12;;;;;;;25.07;16.43;;;6.70;99.90;;;;;;5081185;28;20225;-81
2022/11/06 18:06:38;;;;;;;22.50;10.67;;;6.70;99.90;;;;;;5078461;28;20201;-80
2022/11/06 18:09:06;;;;;;;15.50;9.63;;;6.70;99.90;;;;;;5077998;28;20182;-81
2022/11/06 18:11:32;;;;;;;11.27;8.03;;;6.70;99.90;;;;;;5078955;28;20654;-80
2022/11/06 18:13:59;;;;;;;12.93;8.63;;;6.70;99.90;;;;;;5079130;28;20221;-82
2022/11/06 18:16:27;;;;;;;10.27;7.70;;;6.80;99.90;;;;;;5081003;28;20208;-82
2022/11/06 18:18:54;;;;;;;9.10;7.17;;;6.90;99.90;;;;;;5078460;28;20173;-81
2022/11/06 18:21:20;;;;;;;10.77;8.33;;;6.90;99.90;;;;;;5079251;28;20518;-80
2022/11/06 18:23:45;;;;;;;10.70;8.27;;;6.90;99.90;;;;;;5081013;28;20296;-80
2022/11/06 18:26:12;;;;;;;14.40;8.37;;;7.10;99.90;;;;;;5079292;28;20186;-82
2022/11/06 18:28:38;;;;;;;12.37;8.37;;;7.10;99.90;;;;;;5079095;28;20260;-81
2022/11/06 18:31:04;;;;;;;11.30;8.20;;;7.10;99.90;;;;;;5078110;28;20189;-81
2022/11/06 18:33:30;;;;;;;12.17;8.23;;;7.20;99.90;;;;;;5078671;28;20209;-81
2022/11/06 18:36:00;;;;;;;7.50;5.90;;;7.20;99.90;;;;;;5077721;28;20190;-81
2022/11/06 18:38:26;;;;;;;6.83;4.97;;;7.20;99.90;;;;;;5077560;28;20220;-81
2022/11/06 18:40:52;;;;;;;7.77;5.60;;;7.30;99.90;;;;;;5080575;28;20176;-81
2022/11/06 18:43:18;;;;;;;10.13;6.73;;;7.30;99.90;;;;;;5077463;28;20212;-80
2022/11/06 18:45:44;;;;;;;8.57;5.77;;;;;;;;;;5076968;28;20207;-81
2022/11/06 18:48:09;;;;;;;6.10;4.47;;;7.40;99.90;;;;;;5079528;28;20175;-81
2022/11/06 18:50:36;;;;;;;9.23;5.63;;;7.50;99.90;;;;;;5078070;28;20194;-81
2022/11/06 18:53:03;;;;;;;5.70;4.93;;;7.50;99.90;;;;;;5078755;28;20703;-82
2022/11/06 18:55:29;;;;;;;7.97;5.00;;;7.50;99.90;;;;;;5078636;28;20177;-80
2022/11/06 18:57:55;;;;;;;7.43;5.20;;;7.50;99.90;;;;;;5078690;28;20199;-81
2022/11/06 19:00:21;;;;;;;6.67;4.63;;;7.60;99.90;;;;;;5078683;28;20179;-82
2022/11/06 19:02:48;;;;;;;7.63;5.33;;;7.60;99.90;;;;;;5079415;28;20201;-81
2022/11/06 19:05:14;;;;;;;7.03;5.33;;;7.60;99.90;;;;;;5080629;28;20177;-82
2022/11/06 19:07:40;;;;;;;7.70;5.07;;;7.60;99.90;;;;;;5078971;28;20183;-81
2022/11/06 19:10:07;;;;;;;7.97;5.43;;;7.60;99.90;;;;;;5080259;28;20185;-82
2022/11/06 19:12:33;;;;;;;8.30;5.20;;;7.60;99.90;;;;;;5079442;28;20269;-82
2022/11/06 19:14:59;;;;;;;5.43;4.53;;;7.60;99.90;;;;;;5079777;28;20170;-81
2022/11/06 19:17:25;;;;;;;7.83;5.33;;;7.60;99.90;;;;;;5078616;28;20229;-81
2022/11/06 19:19:50;;;;;;;5.87;4.47;;;7.60;99.90;;;;;;5079342;28;20649;-82
2022/11/06 19:22:16;;;;;;;7.43;4.67;;;;;;;;;;5079407;28;20197;-79
2022/11/06 19:24:42;;;;;;;6.80;4.47;;;7.70;99.90;;;;;;5079684;28;20189;-81
2022/11/06 19:27:08;;;;;;;6.33;4.30;;;7.70;99.90;;;;;;5078373;28;20180;-81
2022/11/06 19:29:34;;;;;;;6.40;5.00;;;7.70;99.90;;;;;;5077733;28;20273;-81
2022/11/06 19:32:01;;;;;;;7.90;5.07;;;7.80;99.90;;;;;;5078867;28;20258;-81
2022/11/06 19:34:28;;;;;;;5.03;3.60;;;7.80;99.90;;;;;;5078415;28;20191;-82
2022/11/06 19:36:54;;;;;;;3.30;2.80;;;7.80;99.90;;;;;;5078384;28;20192;-81
2022/11/06 19:39:20;;;;;;;5.23;3.63;;;8.00;99.90;;;;;;5077038;28;20719;-83
2022/11/06 19:41:46;;;;;;;2.50;2.10;;;8.20;99.90;;;;;;5077390;28;20193;-82
2022/11/06 19:44:12;;;;;;;2.03;1.83;;;8.40;99.90;;;;;;5076866;28;20269;-81
2022/11/06 19:46:38;;;;;;;1.70;1.60;;;8.60;99.90;;;;;;5077562;28;20273;-80
2022/11/06 19:49:05;;;;;;;1.90;1.50;;;8.90;99.90;;;;;;5078425;28;20682;-81
2022/11/06 19:51:32;;;;;;;1.77;1.57;;;9.20;99.90;;;;;;5075611;28;20180;-81
2022/11/06 19:53:59;;;;;;;1.97;1.70;;;9.50;99.90;;;;;;5077529;28;20758;-81
2022/11/06 19:56:25;;;;;;;2.13;1.60;;;9.60;99.90;;;;;;5075485;28;20171;-81
2022/11/06 19:58:51;;;;;;;2.30;2.00;;;9.80;99.90;;;;;;5076472;28;20584;-80
2022/11/06 20:01:17;;;;;;;1.67;1.40;;;9.80;99.90;;;;;;5077414;28;20198;-82
2022/11/06 20:03:43;;;;;;;1.97;1.60;;;;;;;;;;5076161;28;20545;-81
2022/11/06 20:06:10;;;;;;;1.63;1.40;;;9.70;99.90;;;;;;5075554;28;20179;-81
2022/11/06 20:08:37;;;;;;;1.43;1.30;;;9.60;99.90;;;;;;5076186;28;20645;-81
2022/11/06 20:11:11;;;;;;;1.93;1.50;;;9.60;99.90;;;;;;5076164;28;20224;-81
2022/11/06 20:13:38;;;;;;;1.97;1.60;;;9.70;99.90;;;;;;5075339;28;20210;-82
2022/11/06 20:16:06;;;;;;;1.83;1.63;;;9.70;99.90;;;;;;5075821;28;20179;-82
2022/11/06 20:18:34;;;;;;;1.77;1.50;;;9.60;99.90;;;;;;5077152;28;20174;-82
2022/11/06 20:21:08;;;;;;;1.53;1.43;;;9.60;99.90;;;;;;5075326;28;20264;-81
2022/11/06 20:23:35;;;;;;;1.60;1.40;;;9.60;99.90;;;;;;5076679;28;20211;-82
2022/11/06 20:26:01;;;;;;;1.47;1.33;;;9.60;99.90;;;;;;5075853;28;20177;-81
2022/11/06 20:28:27;;;;;;;3.60;1.77;;;9.70;99.90;;;;;;5076957;28;20535;-82
2022/11/06 20:30:53;;;;;;;1.93;1.47;;;9.70;99.90;;;;;;5080230;28;20183;-81
2022/11/06 20:33:19;;;;;;;1.77;1.50;;;9.70;99.90;;;;;;5079121;28;20205;-80
2022/11/06 20:35:45;;;;;;;1.87;1.70;;;;;;;;;;5078509;28;20284;-81
2022/11/06 20:38:13;;;;;;;1.70;1.60;;;9.80;99.90;;;;;;5077987;28;20224;-82
2022/11/06 20:40:39;;;;;;;1.60;1.50;;;;;;;;;;5083362;28;20234;-82
2022/11/06 20:43:05;;;;;;;1.90;1.27;;;9.80;99.90;;;;;;5079607;28;20282;-82
2022/11/06 20:45:35;;;;;;;2.03;1.20;;;9.90;99.90;;;;;;5081197;28;20199;-81